Time;durP1;ratioP1;P1;durP2;ratioP2;P2;SDS_P1;SDS_P2;PMS_P1;PMS_P2;Temp;Humidity;BMP_temperature;BMP_pressure;BME280_temperature;BME280_humidity;BME280_pressure;Samples;Min_cycle;Max_cycle;Signal;HPM_P1;HPM_P2
2023/07/12 00:01:29;;;;;;;0.00;0.00;;;25.50;99.90;;;;;;7378119;19;20192;-70
2023/07/12 00:04:01;;;;;;;0.00;0.00;;;25.50;99.90;;;;;;7377797;19;20153;-69
2023/07/12 00:06:36;;;;;;;0.00;0.00;;;25.40;99.90;;;;;;7377471;19;20197;-70
2023/07/12 00:09:05;;;;;;;0.00;0.00;;;25.40;99.90;;;;;;7374063;19;20179;-69
2023/07/12 00:11:34;;;;;;;0.00;0.00;;;25.40;99.90;;;;;;7377074;19;20176;-70
2023/07/12 00:14:02;;;;;;;0.00;0.00;;;25.40;99.90;;;;;;7378171;19;20166;-70
2023/07/12 00:16:36;;;;;;;0.00;0.00;;;25.30;99.90;;;;;;7375786;19;20608;-71
2023/07/12 00:19:08;;;;;;;0.00;0.00;;;25.30;99.90;;;;;;7374975;19;20244;-70
2023/07/12 00:21:36;;;;;;;0.00;0.00;;;25.30;99.90;;;;;;7378103;19;20137;-71
2023/07/12 00:24:06;;;;;;;0.00;0.00;;;25.20;99.90;;;;;;7383730;19;20163;-70
2023/07/12 00:26:37;;;;;;;0.00;0.00;;;25.20;99.90;;;;;;7386444;19;20137;-70
2023/07/12 00:29:07;;;;;;;0.00;0.00;;;25.20;99.90;;;;;;7381248;19;20530;-69
2023/07/12 00:31:40;;;;;;;0.00;0.00;;;25.20;99.90;;;;;;7383891;19;20144;-69
2023/07/12 00:34:12;;;;;;;0.00;0.00;;;25.20;99.90;;;;;;7383719;19;20144;-70
2023/07/12 00:36:41;;;;;;;0.00;0.00;;;25.10;99.90;;;;;;7381806;19;20157;-70
2023/07/12 00:39:11;;;;;;;0.00;0.00;;;25.10;99.90;;;;;;7380699;19;20188;-70
2023/07/12 00:42:01;;;;;;;0.00;0.00;;;25.10;99.90;;;;;;7376590;19;20161;-70
2023/07/12 00:44:34;;;;;;;0.00;0.00;;;25.10;99.90;;;;;;7383264;19;20153;-70
2023/07/12 00:47:03;;;;;;;0.00;0.00;;;25.10;99.90;;;;;;7384224;19;20132;-70
2023/07/12 00:49:34;;;;;;;0.00;0.00;;;25.00;99.90;;;;;;7381035;19;20184;-71
2023/07/12 00:52:07;;;;;;;0.00;0.00;;;25.00;99.90;;;;;;7385717;19;20165;-70
2023/07/12 00:54:53;;;;;;;0.00;0.00;;;25.00;99.90;;;;;;7384060;19;20160;-71
2023/07/12 00:57:22;;;;;;;0.00;0.00;;;25.00;99.90;;;;;;7380241;19;20125;-71
2023/07/12 00:59:53;;;;;;;0.00;0.00;;;25.00;99.90;;;;;;7384127;19;20156;-70
2023/07/12 01:02:24;;;;;;;0.00;0.00;;;25.00;99.90;;;;;;7382474;19;20186;-68
2023/07/12 01:04:59;;;;;;;0.00;0.00;;;24.90;99.90;;;;;;7383856;19;20160;-71
2023/07/12 01:07:29;;;;;;;0.00;0.00;;;24.90;99.90;;;;;;7383045;19;20140;-70
2023/07/12 01:09:58;;;;;;;0.00;0.00;;;24.90;99.90;;;;;;7386339;19;20172;-71
2023/07/12 01:12:27;;;;;;;0.00;0.00;;;24.90;99.90;;;;;;7382288;19;20148;-70
2023/07/12 01:14:56;;;;;;;0.00;0.00;;;24.90;99.90;;;;;;7382724;19;20159;-70
2023/07/12 01:17:26;;;;;;;0.00;0.00;;;24.90;99.90;;;;;;7380438;19;20141;-70
2023/07/12 01:19:57;;;;;;;0.00;0.00;;;24.90;99.90;;;;;;7383944;19;20154;-70
2023/07/12 01:22:29;;;;;;;0.00;0.00;;;24.90;99.90;;;;;;7380960;19;20145;-70
2023/07/12 01:24:57;;;;;;;0.00;0.00;;;24.90;99.90;;;;;;7384619;19;20141;-70
2023/07/12 01:27:28;;;;;;;0.00;0.00;;;24.90;99.90;;;;;;7379215;19;20156;-69
2023/07/12 01:29:57;;;;;;;0.00;0.00;;;24.90;99.90;;;;;;7381435;19;20169;-70
2023/07/12 01:32:28;;;;;;;0.00;0.00;;;24.90;99.90;;;;;;7383079;19;20188;-71
2023/07/12 01:34:57;;;;;;;0.00;0.00;;;24.80;99.90;;;;;;7379827;19;20167;-71
2023/07/12 01:37:29;;;;;;;0.00;0.00;;;24.90;99.90;;;;;;7377810;19;20156;-70
2023/07/12 01:39:57;;;;;;;0.00;0.00;;;24.90;99.90;;;;;;7380215;19;20178;-70
2023/07/12 01:42:26;;;;;;;0.00;0.00;;;24.80;99.90;;;;;;7381522;19;20160;-71
2023/07/12 01:44:55;;;;;;;0.00;0.00;;;24.80;99.90;;;;;;7380301;19;20184;-72
2023/07/12 01:47:24;;;;;;;0.00;0.00;;;24.70;99.90;;;;;;7379292;19;20232;-71
2023/07/12 01:49:53;;;;;;;0.00;0.00;;;24.70;99.90;;;;;;7384094;19;20146;-70
2023/07/12 01:52:22;;;;;;;0.00;0.00;;;24.70;99.90;;;;;;7381729;19;20137;-70
2023/07/12 01:54:54;;;;;;;0.00;0.00;;;24.60;99.90;;;;;;7382009;19;20152;-71
2023/07/12 01:57:23;;;;;;;0.00;0.00;;;24.60;99.90;;;;;;7376388;19;20148;-71
2023/07/12 01:59:52;;;;;;;0.00;0.00;;;24.60;99.90;;;;;;7380439;19;20179;-70
2023/07/12 02:02:21;;;;;;;0.00;0.00;;;24.60;99.90;;;;;;7378104;19;20144;-71
2023/07/12 02:04:50;;;;;;;0.00;0.00;;;24.60;99.90;;;;;;7381427;19;20141;-71
2023/07/12 02:07:19;;;;;;;0.00;0.00;;;24.50;99.90;;;;;;7376825;19;20185;-70
2023/07/12 02:10:18;;;;;;;0.00;0.00;;;24.60;99.90;;;;;;7381267;19;20144;-69
2023/07/12 02:12:47;;;;;;;0.00;0.00;;;24.50;99.90;;;;;;7379026;19;20163;-70
2023/07/12 02:15:17;;;;;;;0.00;0.00;;;24.60;99.90;;;;;;7377127;19;20193;-69
2023/07/12 02:17:46;;;;;;;0.00;0.00;;;24.60;99.90;;;;;;7375902;19;20184;-68
2023/07/12 02:20:17;;;;;;;0.00;0.00;;;24.50;99.90;;;;;;7378376;19;20754;-69
2023/07/12 02:22:47;;;;;;;0.00;0.00;;;24.50;99.90;;;;;;7381864;19;20137;-69
2023/07/12 02:25:23;;;;;;;0.00;0.00;;;24.50;99.90;;;;;;7380494;19;20152;-69
2023/07/12 02:27:52;;;;;;;0.00;0.00;;;24.50;99.90;;;;;;7379248;19;20180;-69
2023/07/12 02:30:23;;;;;;;0.00;0.00;;;24.60;99.90;;;;;;7380335;19;20159;-69
2023/07/12 02:32:52;;;;;;;0.00;0.00;;;24.50;99.90;;;;;;7378709;19;20159;-69
2023/07/12 02:35:27;;;;;;;0.00;0.00;;;24.50;99.90;;;;;;7381690;19;20141;-69
2023/07/12 02:37:56;;;;;;;0.00;0.00;;;24.50;99.90;;;;;;7378241;19;20163;-69
2023/07/12 02:40:28;;;;;;;0.00;0.00;;;24.50;99.90;;;;;;7379716;19;20145;-70
2023/07/12 02:42:57;;;;;;;0.00;0.00;;;24.50;99.90;;;;;;7378901;19;20175;-69
2023/07/12 02:45:27;;;;;;;0.00;0.00;;;24.50;99.90;;;;;;7376625;19;20144;-69
2023/07/12 02:47:56;;;;;;;0.00;0.00;;;24.50;99.90;;;;;;7378119;19;20203;-69
2023/07/12 02:50:24;;;;;;;0.00;0.00;;;24.50;99.90;;;;;;7378222;19;20153;-69
2023/07/12 02:52:56;;;;;;;0.00;0.00;;;24.40;99.90;;;;;;7378980;19;20156;-69
2023/07/12 02:55:27;;;;;;;0.00;0.00;;;24.40;99.90;;;;;;7378080;19;20152;-70
2023/07/12 02:57:56;;;;;;;0.00;0.00;;;24.40;99.90;;;;;;7374875;19;20268;-69
2023/07/12 03:00:25;;;;;;;0.00;0.00;;;24.30;99.90;;;;;;7379431;19;20129;-70
2023/07/12 03:02:54;;;;;;;0.00;0.00;;;24.30;99.90;;;;;;7378158;19;20165;-69
2023/07/12 03:05:22;;;;;;;0.00;0.00;;;24.30;99.90;;;;;;7378251;19;20152;-69
2023/07/12 03:07:51;;;;;;;0.00;0.00;;;24.30;99.90;;;;;;7378972;19;20152;-68
2023/07/12 03:10:20;;;;;;;0.00;0.00;;;24.30;99.90;;;;;;7378131;19;20171;-69
2023/07/12 03:12:54;;;;;;;0.00;0.00;;;24.30;99.90;;;;;;7379195;19;20160;-70
2023/07/12 03:15:23;;;;;;;0.00;0.00;;;24.30;99.90;;;;;;7377300;19;20144;-68
2023/07/12 03:17:51;;;;;;;0.00;0.00;;;24.30;99.90;;;;;;7375578;19;20188;-69
2023/07/12 03:20:21;;;;;;;0.00;0.00;;;24.30;99.90;;;;;;7378425;19;20172;-69
2023/07/12 03:22:49;;;;;;;0.00;0.00;;;24.30;99.90;;;;;;7380680;19;20141;-69
2023/07/12 03:25:19;;;;;;;0.00;0.00;;;24.30;99.90;;;;;;7378523;19;20165;-69
2023/07/12 03:27:48;;;;;;;0.00;0.00;;;24.30;99.90;;;;;;7378291;19;20153;-69
2023/07/12 03:30:20;;;;;;;0.00;0.00;;;24.30;99.90;;;;;;7379280;19;20148;-70
2023/07/12 03:32:49;;;;;;;0.00;0.00;;;24.30;99.90;;;;;;7380722;19;20147;-71
2023/07/12 03:35:18;;;;;;;0.00;0.00;;;24.30;99.90;;;;;;7377201;19;20157;-70
2023/07/12 03:37:47;;;;;;;0.00;0.00;;;24.30;99.90;;;;;;7374998;19;20180;-69
2023/07/12 03:40:16;;;;;;;0.00;0.00;;;24.30;99.90;;;;;;7375817;19;20195;-70
2023/07/12 03:42:45;;;;;;;0.00;0.00;;;24.30;99.90;;;;;;7379344;19;20155;-69
2023/07/12 03:45:14;;;;;;;0.00;0.00;;;24.30;99.90;;;;;;7377211;19;20149;-69
2023/07/12 03:47:46;;;;;;;0.00;0.00;;;24.30;99.90;;;;;;7377284;19;20207;-69
2023/07/12 03:50:15;;;;;;;0.00;0.00;;;24.30;99.90;;;;;;7378959;19;20153;-70
2023/07/12 03:52:44;;;;;;;0.00;0.00;;;24.40;99.90;;;;;;7377790;19;20178;-70
2023/07/12 03:55:13;;;;;;;0.00;0.00;;;24.40;99.90;;;;;;7377798;19;20198;-70
2023/07/12 03:57:42;;;;;;;0.00;0.00;;;24.40;99.90;;;;;;7379825;19;20133;-69
2023/07/12 04:00:13;;;;;;;0.00;0.00;;;24.50;99.90;;;;;;7384537;19;20203;-70
2023/07/12 04:02:45;;;;;;;0.00;0.00;;;24.50;99.90;;;;;;7387332;19;20136;-70
2023/07/12 04:05:14;;;;;;;0.00;0.00;;;24.50;99.90;;;;;;7384978;19;20160;-70
2023/07/12 04:07:43;;;;;;;0.00;0.00;;;24.50;99.90;;;;;;7385272;19;20167;-69
2023/07/12 04:10:12;;;;;;;0.00;0.00;;;24.60;99.90;;;;;;7383291;19;20177;-69
2023/07/12 04:12:41;;;;;;;0.00;0.00;;;24.60;99.90;;;;;;7385772;19;20607;-70
2023/07/12 04:15:11;;;;;;;0.00;0.00;;;24.70;99.90;;;;;;7383637;19;20172;-70
2023/07/12 04:17:40;;;;;;;0.00;0.00;;;24.70;99.90;;;;;;7383232;19;20151;-68
2023/07/12 04:20:15;;;;;;;0.00;0.00;;;24.70;99.90;;;;;;7383832;19;20724;-67
2023/07/12 04:22:43;;;;;;;0.00;0.00;;;24.80;99.90;;;;;;7385328;19;20144;-68
2023/07/12 04:25:13;;;;;;;0.00;0.00;;;24.80;99.90;;;;;;7384876;19;20577;-69
2023/07/12 04:27:42;;;;;;;0.00;0.00;;;24.90;99.90;;;;;;7381465;19;20179;-67
2023/07/12 04:30:14;;;;;;;0.00;0.00;;;24.90;99.90;;;;;;7383666;19;20192;-68
2023/07/12 04:32:43;;;;;;;0.00;0.00;;;24.90;99.90;;;;;;7382766;19;20156;-71
2023/07/12 04:35:15;;;;;;;0.00;0.00;;;24.90;99.90;;;;;;7383854;19;20157;-71
2023/07/12 04:37:48;;;;;;;0.00;0.00;;;24.90;99.90;;;;;;7383331;19;20175;-70
2023/07/12 04:40:18;;;;;;;0.00;0.00;;;25.00;99.90;;;;;;7383074;19;20152;-70
2023/07/12 04:42:47;;;;;;;0.00;0.00;;;25.00;99.90;;;;;;7382797;19;20171;-69
2023/07/12 04:45:16;;;;;;;0.00;0.00;;;25.00;99.90;;;;;;7385449;19;20137;-70
2023/07/12 04:47:45;;;;;;;0.00;0.00;;;25.00;99.90;;;;;;7383744;19;20157;-70
2023/07/12 04:50:17;;;;;;;0.00;0.00;;;25.00;99.90;;;;;;7383582;19;20150;-73
2023/07/12 04:52:46;;;;;;;0.00;0.00;;;24.90;99.90;;;;;;7383475;19;20183;-73
2023/07/12 04:55:28;;;;;;;0.00;0.00;;;24.90;99.90;;;;;;7382828;19;20156;-73
2023/07/12 04:57:57;;;;;;;0.00;0.00;;;24.80;99.90;;;;;;7380888;19;20268;-73
2023/07/12 05:00:27;;;;;;;0.00;0.00;;;24.80;99.90;;;;;;7384241;19;20137;-73
2023/07/12 05:02:57;;;;;;;0.00;0.00;;;24.70;99.90;;;;;;7383831;19;20152;-73
2023/07/12 05:05:29;;;;;;;0.00;0.00;;;24.60;99.90;;;;;;7383214;19;20163;-71
2023/07/12 05:07:59;;;;;;;0.00;0.00;;;24.60;99.90;;;;;;7380985;19;20180;-70
2023/07/12 05:10:28;;;;;;;0.00;0.00;;;24.50;99.90;;;;;;7381043;19;20151;-71
2023/07/12 05:12:56;;;;;;;0.00;0.00;;;24.60;99.90;;;;;;7384520;19;20137;-71
2023/07/12 05:15:26;;;;;;;0.00;0.00;;;24.60;99.90;;;;;;7384061;19;20143;-72
2023/07/12 05:17:55;;;;;;;0.00;0.00;;;24.60;99.90;;;;;;7382101;19;20164;-73
2023/07/12 05:20:23;;;;;;;0.00;0.00;;;24.60;99.90;;;;;;7383812;19;20201;-72
2023/07/12 05:22:55;;;;;;;0.00;0.00;;;24.60;99.90;;;;;;7382685;19;20160;-73
2023/07/12 05:25:24;;;;;;;0.00;0.00;;;24.60;99.90;;;;;;7383253;19;20615;-74
2023/07/12 05:27:54;;;;;;;0.00;0.00;;;24.50;99.90;;;;;;7381271;19;20184;-74
2023/07/12 05:30:23;;;;;;;0.00;0.00;;;24.50;99.90;;;;;;7379983;19;20165;-71
2023/07/12 05:32:52;;;;;;;0.00;0.00;;;24.50;99.90;;;;;;7382194;19;20175;-71
2023/07/12 05:35:21;;;;;;;0.00;0.00;;;24.50;99.90;;;;;;7380170;19;20152;-72
2023/07/12 05:37:51;;;;;;;0.00;0.00;;;24.40;99.90;;;;;;7378542;19;20184;-71
2023/07/12 05:40:24;;;;;;;0.00;0.00;;;24.30;99.90;;;;;;7379404;19;20167;-68
2023/07/12 05:42:54;;;;;;;0.00;0.00;;;24.30;99.90;;;;;;7381914;19;20151;-70
2023/07/12 05:45:33;;;;;;;0.00;0.00;;;24.20;99.90;;;;;;7381177;19;20149;-68
2023/07/12 05:48:02;;;;;;;0.00;0.00;;;24.10;99.90;;;;;;7381918;19;20165;-71
2023/07/12 05:50:34;;;;;;;0.00;0.00;;;24.00;99.90;;;;;;7381634;19;20149;-69
2023/07/12 05:53:04;;;;;;;0.00;0.00;;;23.90;99.90;;;;;;7382433;19;20172;-68
2023/07/12 05:55:36;;;;;;;0.00;0.00;;;23.80;99.90;;;;;;7381398;19;20157;-71
2023/07/12 05:58:05;;;;;;;0.00;0.00;;;23.70;99.90;;;;;;7379137;19;20187;-70
2023/07/12 06:00:35;;;;;;;0.00;0.00;;;23.60;99.90;;;;;;7380763;19;20203;-67
2023/07/12 06:03:05;;;;;;;0.00;0.00;;;23.50;99.90;;;;;;7382047;19;20156;-71
2023/07/12 06:05:34;;;;;;;0.00;0.00;;;23.50;99.90;;;;;;7381109;19;20145;-71
2023/07/12 06:08:03;;;;;;;0.00;0.00;;;23.50;99.90;;;;;;7379524;19;20184;-71
2023/07/12 06:10:35;;;;;;;0.00;0.00;;;23.50;99.90;;;;;;7380718;19;20157;-71
2023/07/12 06:13:04;;;;;;;0.00;0.00;;;23.40;99.90;;;;;;7380208;19;20152;-71
2023/07/12 06:15:33;;;;;;;0.00;0.00;;;23.40;99.90;;;;;;7381008;19;20149;-70
2023/07/12 06:18:03;;;;;;;0.00;0.00;;;23.40;99.90;;;;;;7380836;19;20249;-70
2023/07/12 06:20:32;;;;;;;0.00;0.00;;;23.40;99.90;;;;;;7379888;19;20256;-67
2023/07/12 06:23:02;;;;;;;0.00;0.00;;;23.40;99.90;;;;;;7380078;19;20220;-68
2023/07/12 06:25:35;;;;;;;0.00;0.00;;;23.30;99.90;;;;;;7380519;19;20149;-72
2023/07/12 06:28:07;;;;;;;0.00;0.00;;;23.30;99.90;;;;;;7378287;19;20184;-71
2023/07/12 06:30:39;;;;;;;0.00;0.00;;;23.20;99.90;;;;;;7380661;19;20160;-68
2023/07/12 06:33:12;;;;;;;0.00;0.00;;;23.20;99.90;;;;;;7379937;19;20156;-68
2023/07/12 06:35:43;;;;;;;0.00;0.00;;;23.20;99.90;;;;;;7381704;19;20144;-69
2023/07/12 06:38:13;;;;;;;0.00;0.00;;;23.30;99.90;;;;;;7377088;19;20184;-71
2023/07/12 06:40:44;;;;;;;0.00;0.00;;;23.30;99.90;;;;;;7379285;19;20141;-72
2023/07/12 06:43:19;;;;;;;0.00;0.00;;;23.40;99.90;;;;;;7379830;19;20170;-71
2023/07/12 06:45:49;;;;;;;0.00;0.00;;;23.40;99.90;;;;;;7379390;19;20179;-72
2023/07/12 06:48:19;;;;;;;0.00;0.00;;;23.40;99.90;;;;;;7378207;19;20173;-71
2023/07/12 06:50:48;;;;;;;0.00;0.00;;;23.50;99.90;;;;;;7379162;19;20190;-70
2023/07/12 06:53:18;;;;;;;0.00;0.00;;;23.50;99.90;;;;;;7379967;19;20553;-68
2023/07/12 06:55:48;;;;;;;0.00;0.00;;;23.50;99.90;;;;;;7379392;19;20217;-69
2023/07/12 06:58:24;;;;;;;0.00;0.00;;;23.60;99.90;;;;;;7377803;19;20209;-68
2023/07/12 07:00:54;;;;;;;0.00;0.00;;;23.80;99.90;;;;;;7379730;19;20157;-68
2023/07/12 07:03:24;;;;;;;0.00;0.00;;;23.90;99.90;;;;;;7378957;19;20149;-68
2023/07/12 07:05:54;;;;;;;0.00;0.00;;;23.90;99.90;;;;;;7379980;19;20188;-68
2023/07/12 07:08:31;;;;;;;0.00;0.00;;;23.80;99.90;;;;;;7377401;19;20176;-69
2023/07/12 07:11:00;;;;;;;0.00;0.00;;;23.70;99.90;;;;;;7380164;19;20153;-70
2023/07/12 07:13:34;;;;;;;0.00;0.00;;;23.70;99.90;;;;;;7378070;19;20149;-70
2023/07/12 07:16:03;;;;;;;0.00;0.00;;;23.70;99.90;;;;;;7378780;19;20169;-71
2023/07/12 07:18:32;;;;;;;0.00;0.00;;;23.90;99.90;;;;;;7375746;19;20203;-71
2023/07/12 07:21:05;;;;;;;0.00;0.00;;;24.00;99.90;;;;;;7378438;19;20619;-72
2023/07/12 07:23:35;;;;;;;0.00;0.00;;;24.20;99.90;;;;;;7377774;19;20152;-70
2023/07/12 07:26:05;;;;;;;0.00;0.00;;;24.30;99.90;;;;;;7379408;19;20264;-71
2023/07/12 07:28:38;;;;;;;0.00;0.00;;;24.50;99.90;;;;;;7375834;19;20219;-71
2023/07/12 07:31:07;;;;;;;0.00;0.00;;;24.80;99.90;;;;;;7381097;19;20132;-71
2023/07/12 07:33:37;;;;;;;0.00;0.00;;;25.20;99.90;;;;;;7377545;19;20156;-72
2023/07/12 07:36:09;;;;;;;0.00;0.00;;;25.40;99.90;;;;;;7379071;19;20164;-72
2023/07/12 07:38:38;;;;;;;0.00;0.00;;;25.60;99.90;;;;;;7374852;19;20188;-70
2023/07/12 07:41:09;;;;;;;0.00;0.00;;;25.70;99.90;;;;;;7377865;19;20148;-72
2023/07/12 07:43:41;;;;;;;0.00;0.00;;;25.70;99.90;;;;;;7378166;19;20161;-71
2023/07/12 07:46:11;;;;;;;0.00;0.00;;;25.70;99.90;;;;;;7377657;19;20170;-71
2023/07/12 07:48:41;;;;;;;0.00;0.00;;;25.60;99.90;;;;;;7376401;19;20184;-71
2023/07/12 07:51:10;;;;;;;0.00;0.00;;;25.60;99.90;;;;;;7377722;19;20157;-71
2023/07/12 07:53:40;;;;;;;0.00;0.00;;;25.60;99.90;;;;;;7377944;19;20208;-72
2023/07/12 07:56:11;;;;;;;0.00;0.00;;;25.50;99.90;;;;;;7379176;19;20137;-72
2023/07/12 07:58:42;;;;;;;0.00;0.00;;;25.40;99.90;;;;;;7375105;19;20180;-70
2023/07/12 08:01:11;;;;;;;0.00;0.00;;;25.30;99.90;;;;;;7378213;19;20151;-71
2023/07/12 08:03:41;;;;;;;0.00;0.00;;;25.30;99.90;;;;;;7376704;19;20156;-70
2023/07/12 08:06:10;;;;;;;0.00;0.00;;;25.30;99.90;;;;;;7377158;19;20159;-71
2023/07/12 08:08:41;;;;;;;0.00;0.00;;;25.30;99.90;;;;;;7376035;19;20186;-69
2023/07/12 08:11:10;;;;;;;0.00;0.00;;;25.50;99.90;;;;;;7376883;19;20212;-72
2023/07/12 08:13:42;;;;;;;0.00;0.00;;;25.90;99.90;;;;;;7378378;19;20208;-72
2023/07/12 08:16:12;;;;;;;0.00;0.00;;;26.20;99.90;;;;;;7376746;19;20169;-72
2023/07/12 08:18:41;;;;;;;0.00;0.00;;;26.50;99.90;;;;;;7374826;19;20183;-73
2023/07/12 08:21:10;;;;;;;0.00;0.00;;;26.70;99.90;;;;;;7377197;19;20152;-70
2023/07/12 08:23:40;;;;;;;0.00;0.00;;;27.00;99.90;;;;;;7376606;19;20157;-71
2023/07/12 08:26:10;;;;;;;0.00;0.00;;;27.20;99.90;;;;;;7379035;19;20153;-71
2023/07/12 08:28:41;;;;;;;0.00;0.00;;;27.40;99.90;;;;;;7374165;19;20245;-71
2023/07/12 08:31:10;;;;;;;0.00;0.00;;;27.70;99.90;;;;;;7376925;19;20153;-71
2023/07/12 08:33:41;;;;;;;0.00;0.00;;;27.90;99.90;;;;;;7378132;19;20137;-71
2023/07/12 08:36:10;;;;;;;0.00;0.00;;;28.10;99.90;;;;;;7376839;19;20160;-72
2023/07/12 08:38:40;;;;;;;0.00;0.00;;;28.10;99.90;;;;;;7373010;19;20184;-71
2023/07/12 08:41:16;;;;;;;0.00;0.00;;;28.20;99.90;;;;;;7377757;19;20157;-72
2023/07/12 08:43:48;;;;;;;0.00;0.00;;;28.30;99.90;;;;;;7377412;19;20164;-72
2023/07/12 08:46:21;;;;;;;0.00;0.00;;;28.40;99.90;;;;;;7383225;19;20167;-72
2023/07/12 08:48:54;;;;;;;0.00;0.00;;;28.50;99.90;;;;;;7382970;19;20157;-72
2023/07/12 08:51:30;;;;;;;0.00;0.00;;;28.60;99.90;;;;;;7383617;19;20150;-70
2023/07/12 08:54:00;;;;;;;0.00;0.00;;;28.70;99.90;;;;;;7383347;19;20152;-69
2023/07/12 08:56:30;;;;;;;0.00;0.00;;;28.70;99.90;;;;;;7383978;19;20156;-70
2023/07/12 08:59:11;;;;;;;0.00;0.00;;;28.80;99.90;;;;;;7381172;19;20180;-71
2023/07/12 09:01:45;;;;;;;0.00;0.00;;;;;;;;;;7383585;19;20148;-70
2023/07/12 09:04:25;;;;;;;0.00;0.00;;;;;;;;;;7383340;19;20232;-72
2023/07/12 09:06:55;;;;;;;0.00;0.00;;;;;;;;;;7382245;19;20180;-71
2023/07/12 09:09:26;;;;;;;0.00;0.00;;;;;;;;;;7381327;19;20180;-71
2023/07/12 09:11:55;;;;;;;0.00;0.00;;;;;;;;;;7383585;19;20157;-69
2023/07/12 09:14:30;;;;;;;0.00;0.00;;;;;;;;;;7383580;19;20144;-70
2023/07/12 09:17:01;;;;;;;0.00;0.00;;;;;;;;;;7382271;19;20145;-71
2023/07/12 09:19:34;;;;;;;0.00;0.00;;;;;;;;;;7381502;19;20177;-71
2023/07/12 09:22:09;;;;;;;0.00;0.00;;;;;;;;;;7384144;19;20176;-70
2023/07/12 09:24:44;;;;;;;0.00;0.00;;;;;;;;;;7382684;19;20145;-72
2023/07/12 09:27:17;;;;;;;0.00;0.00;;;;;;;;;;7381676;19;20158;-71
2023/07/12 09:29:49;;;;;;;0.00;0.00;;;;;;;;;;7380189;19;20702;-71
2023/07/12 09:32:22;;;;;;;0.00;0.00;;;;;;;;;;7382202;19;20156;-70
2023/07/12 09:34:54;;;;;;;0.00;0.00;;;;;;;;;;7384004;19;20184;-71
2023/07/12 09:37:24;;;;;;;0.00;0.00;;;;;;;;;;7380353;19;20141;-70
2023/07/12 09:39:57;;;;;;;0.00;0.00;;;;;;;;;;7379729;19;20152;-71
2023/07/12 09:42:27;;;;;;;0.00;0.00;;;;;;;;;;7383147;19;20153;-71
2023/07/12 09:45:04;;;;;;;0.00;0.00;;;;;;;;;;7381911;19;20149;-71
2023/07/12 09:47:38;;;;;;;0.00;0.00;;;;;;;;;;7380314;19;20156;-72
2023/07/12 09:50:13;;;;;;;0.00;0.00;;;;;;;;;;7383394;19;20156;-68
2023/07/12 09:52:49;;;;;;;0.00;0.00;;;;;;;;;;7380744;19;20148;-70
2023/07/12 09:55:21;;;;;;;0.00;0.00;;;;;;;;;;7381054;19;20220;-70
2023/07/12 09:57:54;;;;;;;0.00;0.00;;;;;;;;;;7379180;19;20192;-70
2023/07/12 10:00:31;;;;;;;0.00;0.00;;;;;;;;;;7379244;19;20157;-69
2023/07/12 10:03:07;;;;;;;0.00;0.00;;;;;;;;;;7381514;19;20227;-71
2023/07/12 10:05:37;;;;;;;0.00;0.00;;;;;;;;;;7381720;19;20223;-70
2023/07/12 10:08:08;;;;;;;0.00;0.00;;;;;;;;;;7379985;19;20184;-70
2023/07/12 10:10:40;;;;;;;0.00;0.00;;;;;;;;;;7383061;19;20159;-70
2023/07/12 10:13:18;;;;;;;0.00;0.00;;;;;;;;;;7382633;19;20148;-72
2023/07/12 10:15:51;;;;;;;0.00;0.00;;;;;;;;;;7382808;19;20157;-72
2023/07/12 10:18:21;;;;;;;0.00;0.00;;;;;;;;;;7379382;19;20220;-71
2023/07/12 10:20:51;;;;;;;0.00;0.00;;;;;;;;;;7380457;19;20160;-72
2023/07/12 10:23:24;;;;;;;0.00;0.00;;;;;;;;;;7381064;19;20163;-72
2023/07/12 10:25:57;;;;;;;0.00;0.00;;;;;;;;;;7381034;19;20180;-72
2023/07/12 10:28:29;;;;;;;0.00;0.00;;;;;;;;;;7378463;19;20172;-71
2023/07/12 10:31:07;;;;;;;0.00;0.00;;;;;;;;;;7380947;19;20159;-71
2023/07/12 10:33:39;;;;;;;0.00;0.00;;;;;;;;;;7380432;19;20151;-70
2023/07/12 10:36:10;;;;;;;0.00;0.00;;;;;;;;;;7380894;19;20179;-72
2023/07/12 10:38:43;;;;;;;0.00;0.00;;;;;;;;;;7377867;19;20177;-71
2023/07/12 10:41:15;;;;;;;0.00;0.00;;;;;;;;;;7380876;19;20172;-72
2023/07/12 10:43:47;;;;;;;0.00;0.00;;;;;;;;;;7379344;19;20148;-72
2023/07/12 10:46:29;;;;;;;0.00;0.00;;;;;;;;;;7380553;19;20157;-71
2023/07/12 10:48:59;;;;;;;0.00;0.00;;;;;;;;;;7376138;19;20650;-71
2023/07/12 10:51:34;;;;;;;0.00;0.00;;;;;;;;;;7379301;19;20144;-71
2023/07/12 10:54:03;;;;;;;0.00;0.00;;;;;;;;;;7379290;19;20139;-72
2023/07/12 10:56:37;;;;;;;0.00;0.00;;;;;;;;;;7378806;19;20172;-70
2023/07/12 10:59:08;;;;;;;0.00;0.00;;;;;;;;;;7377887;19;20177;-72
2023/07/12 11:01:52;;;;;;;0.00;0.00;;;;;;;;;;7380213;19;20156;-70
2023/07/12 11:04:36;;;;;;;0.00;0.00;;;;;;;;;;7378242;19;20184;-70
2023/07/12 11:07:07;;;;;;;0.00;0.00;;;;;;;;;;7375502;19;20155;-70
2023/07/12 11:10:03;;;;;;;0.00;0.00;;;;;;;;;;7377908;19;20176;-69
2023/07/12 11:12:41;;;;;;;0.00;0.00;;;;;;;;;;7377059;19;20152;-72
2023/07/12 11:15:21;;;;;;;0.00;0.00;;;;;;;;;;7378867;19;20152;-71
2023/07/12 11:17:53;;;;;;;0.00;0.00;;;;;;;;;;7377104;19;20207;-72
2023/07/12 11:20:27;;;;;;;0.00;0.00;;;;;;;;;;7378256;19;20156;-72
2023/07/12 11:22:58;;;;;;;0.00;0.00;;;;;;;;;;7378470;19;20227;-72
2023/07/12 11:25:36;;;;;;;0.00;0.00;;;;;;;;;;7379055;19;20157;-72
2023/07/12 11:28:06;;;;;;;0.00;0.00;;;;;;;;;;7376327;19;20201;-72
2023/07/12 11:30:47;;;;;;;0.00;0.00;;;;;;;;;;7381024;19;20125;-73
2023/07/12 11:33:22;;;;;;;0.00;0.00;;;;;;;;;;7380157;19;20136;-71
2023/07/12 11:35:55;;;;;;;0.00;0.00;;;;;;;;;;7378449;19;20235;-71
2023/07/12 11:38:27;;;;;;;0.00;0.00;;;;;;;;;;7375280;19;20180;-71
2023/07/12 11:40:57;;;;;;;0.00;0.00;;;;;;;;;;7377086;19;20153;-71
2023/07/12 11:43:35;;;;;;;0.00;0.00;;;;;;;;;;7377207;19;20169;-70
2023/07/12 11:46:06;;;;;;;0.00;0.00;;;;;;;;;;7377048;19;20247;-70
2023/07/12 11:48:37;;;;;;;0.00;0.00;;;;;;;;;;7375524;19;20187;-71
2023/07/12 11:51:11;;;;;;;0.00;0.00;;;;;;;;;;7376778;19;20148;-71
2023/07/12 11:53:41;;;;;;;0.00;0.00;;;;;;;;;;7379053;19;20152;-70
2023/07/12 11:56:15;;;;;;;0.00;0.00;;;;;;;;;;7378688;19;20172;-72
2023/07/12 11:58:45;;;;;;;0.00;0.00;;;;;;;;;;7376131;19;20235;-71
2023/07/12 12:01:17;;;;;;;0.00;0.00;;;;;;;;;;7376322;19;20155;-71
2023/07/12 12:03:47;;;;;;;0.00;0.00;;;;;;;;;;7376862;19;20156;-70
2023/07/12 12:06:20;;;;;;;0.00;0.00;;;;;;;;;;7377615;19;20149;-70
2023/07/12 12:08:56;;;;;;;0.00;0.00;;;;;;;;;;7375447;19;20187;-71
2023/07/12 12:11:28;;;;;;;0.00;0.00;;;;;;;;;;7379014;19;20155;-70
2023/07/12 12:13:59;;;;;;;0.00;0.00;;;;;;;;;;7377701;19;20148;-69
2023/07/12 12:16:30;;;;;;;0.00;0.00;;;;;;;;;;7377021;19;20161;-69
2023/07/12 12:19:04;;;;;;;0.00;0.00;;;;;;;;;;7371413;19;20724;-71
2023/07/12 12:21:36;;;;;;;0.00;0.00;;;;;;;;;;7373189;19;20161;-72
2023/07/12 12:24:09;;;;;;;0.00;0.00;;;;;;;;;;7377958;19;20161;-71
2023/07/12 12:26:41;;;;;;;0.00;0.00;;;;;;;;;;7384111;19;20141;-70
2023/07/12 12:29:17;;;;;;;0.00;0.00;;;;;;;;;;7379829;19;20654;-71
2023/07/12 12:31:53;;;;;;;0.00;0.00;;;;;;;;;;7383972;19;20228;-72
2023/07/12 12:34:23;;;;;;;0.00;0.00;;;;;;;;;;7384871;19;20156;-71
2023/07/12 12:37:02;;;;;;;0.00;0.00;;;;;;;;;;7384422;19;20144;-69
2023/07/12 12:39:31;;;;;;;0.00;0.00;;;;;;;;;;7383709;19;20216;-71
2023/07/12 12:42:02;;;;;;;0.00;0.00;;;;;;;;;;7383917;19;20152;-70
2023/07/12 12:44:32;;;;;;;0.00;0.00;;;;;;;;;;7384306;19;20156;-70
2023/07/12 12:47:04;;;;;;;0.00;0.00;;;;;;;;;;7382348;19;20521;-72
2023/07/12 12:49:34;;;;;;;0.00;0.00;;;;;;;;;;7381775;19;20195;-71
2023/07/12 12:52:21;;;;;;;0.00;0.00;;;;;;;;;;7377099;19;20180;-72
2023/07/12 12:54:51;;;;;;;0.00;0.00;;;;;;;;;;7382577;19;20152;-72
2023/07/12 12:57:20;;;;;;;0.00;0.00;;;;;;;;;;7381928;19;20148;-71
2023/07/12 12:59:49;;;;;;;0.00;0.00;;;;;;;;;;7379674;19;20189;-72
2023/07/12 13:02:21;;;;;;;0.00;0.00;;;;;;;;;;7382559;19;20228;-71
2023/07/12 13:04:51;;;;;;;0.00;0.00;;;;;;;;;;7381403;19;20145;-71
2023/07/12 13:07:25;;;;;;;0.00;0.00;;;;;;;;;;7382755;19;20174;-71
2023/07/12 13:09:55;;;;;;;0.00;0.00;;;;;;;;;;7382342;19;20186;-71
2023/07/12 13:12:26;;;;;;;0.00;0.00;;;;;;;;;;7383128;19;20149;-70
2023/07/12 13:14:57;;;;;;;0.00;0.00;;;;;;;;;;7383102;19;20184;-70
2023/07/12 13:17:30;;;;;;;0.00;0.00;;;;;;;;;;7381731;19;20186;-71
2023/07/12 13:20:00;;;;;;;0.00;0.00;;;;;;;;;;7381717;19;21990;-71
2023/07/12 13:22:39;;;;;;;0.00;0.00;;;;;;;;;;7381771;19;20161;-70
2023/07/12 13:25:09;;;;;;;0.00;0.00;;;;;;;;;;7382895;19;20168;-71
2023/07/12 13:27:40;;;;;;;0.00;0.00;;;;;;;;;;7380805;19;20235;-72
2023/07/12 13:30:14;;;;;;;0.00;0.00;;;;;;;;;;7378936;19;20168;-70
2023/07/12 13:32:44;;;;;;;0.00;0.00;;;;;;;;;;7382518;19;20175;-71
2023/07/12 13:35:18;;;;;;;0.00;0.00;;;;;;;;;;7382990;19;20144;-70
2023/07/12 13:37:50;;;;;;;0.00;0.00;;;;;;;;;;7380383;19;20184;-71
2023/07/12 13:40:20;;;;;;;0.00;0.00;;;;;;;;;;7382535;19;20149;-71
2023/07/12 13:42:50;;;;;;;0.00;0.00;;;;;;;;;;7383533;19;20159;-71
2023/07/12 13:45:19;;;;;;;0.00;0.00;;;;;;;;;;7383262;19;20220;-72